Time;durP1;ratioP1;P1;durP2;ratioP2;P2;SDS_P1;SDS_P2;PMS_P1;PMS_P2;Temp;Humidity;BMP_temperature;BMP_pressure;BME280_temperature;BME280_humidity;BME280_pressure;Samples;Min_cycle;Max_cycle;Signal;HPM_P1;HPM_P2
2022/04/26 03:37:48;;;;;;;9.48;5.85;;;;;;;;;;4935427;29;20038;-80
2022/04/26 03:40:14;;;;;;;10.43;6.55;;;;;;;;;;4935060;29;20036;-81
2022/04/26 03:42:40;;;;;;;12.73;6.35;;;;;;;;;;4935174;29;20036;-80
2022/04/26 03:45:07;;;;;;;12.35;6.18;;;;;;;;;;4934859;29;20058;-80
2022/04/26 03:47:33;;;;;;;15.07;5.93;;;;;;;;;;4933474;29;20051;-81
2022/04/26 03:49:59;;;;;;;8.40;5.88;;;;;;;;;;4935311;29;20055;-80
2022/04/26 03:52:25;;;;;;;10.98;6.13;;;;;;;;;;4958271;28;20042;-80
2022/04/26 03:54:51;;;;;;;11.23;6.30;;;;;;;;;;4994752;28;20026;-80
2022/04/26 03:57:17;;;;;;;14.23;6.55;;;;;;;;;;4995033;28;20455;-80
2022/04/26 03:59:43;;;;;;;7.68;5.65;;;;;;;;;;4994964;28;20022;-80
2022/04/26 04:02:09;;;;;;;10.00;6.25;;;;;;;;;;4994903;28;20077;-80
2022/04/26 04:04:35;;;;;;;10.18;5.32;;;;;;;;;;4993537;28;20033;-80
2022/04/26 04:07:01;;;;;;;10.63;5.80;;;;;;;;;;4994761;28;20030;-80
2022/04/26 04:09:27;;;;;;;8.88;5.78;;;;;;;;;;4994428;28;20053;-80
2022/04/26 04:11:53;;;;;;;9.82;6.40;;;;;;;;;;4993428;28;20057;-84
2022/04/26 04:14:19;;;;;;;10.15;6.68;;;;;;;;;;4994735;28;20080;-80
2022/04/26 04:16:45;;;;;;;15.45;5.88;;;;;;;;;;4994247;28;20026;-79
2022/04/26 04:19:23;;;;;;;10.38;5.95;;;;;;;;;;5026335;28;20379;-79
2022/04/26 04:21:50;;;;;;;8.95;6.53;;;;;;;;;;4994546;28;20033;-79
2022/04/26 04:24:17;;;;;;;10.90;6.10;;;;;;;;;;4994171;28;20031;-80
2022/04/26 04:26:43;;;;;;;9.00;5.75;;;;;;;;;;4994215;28;20034;-78
2022/04/26 04:29:09;;;;;;;11.73;5.88;;;;;;;;;;4994482;28;20060;-80
2022/04/26 04:31:35;;;;;;;15.40;6.00;;;;;;;;;;4978440;28;20034;-80
2022/04/26 04:34:02;;;;;;;12.43;6.32;;;;;;;;;;4976181;28;20388;-80
2022/04/26 04:36:28;;;;;;;11.50;6.07;;;;;;;;;;4992358;28;20034;-80
2022/04/26 04:38:55;;;;;;;11.23;5.78;;;;;;;;;;4990914;28;20454;-80
2022/04/26 04:41:21;;;;;;;10.70;6.65;;;;;;;;;;4993375;28;20033;-80
2022/04/26 04:43:47;;;;;;;13.63;6.35;;;;;;;;;;4993586;28;20027;-79
2022/04/26 04:46:13;;;;;;;14.75;6.55;;;;;;;;;;4993867;28;20033;-80
2022/04/26 04:48:39;;;;;;;12.70;5.93;;;;;;;;;;4993265;28;20124;-80
2022/04/26 04:51:05;;;;;;;12.88;6.07;;;;;;;;;;4994231;28;20459;-80
2022/04/26 04:53:31;;;;;;;13.32;6.40;;;;;;;;;;4993358;28;20033;-80
2022/04/26 04:55:57;;;;;;;18.08;6.72;;;;;;;;;;4993797;28;20138;-80
2022/04/26 04:58:23;;;;;;;16.05;7.57;;;;;;;;;;4993885;28;20035;-80
2022/04/26 05:00:49;;;;;;;9.15;6.90;;;;;;;;;;4993308;28;20024;-80
2022/04/26 05:03:15;;;;;;;11.82;5.88;;;;;;;;;;4993851;28;20037;-80
2022/04/26 05:05:41;;;;;;;10.32;6.70;;;;;;;;;;4993717;28;20046;-80
2022/04/26 05:08:09;;;;;;;14.18;6.65;;;;;;;;;;4993363;28;20486;-80
2022/04/26 05:10:36;;;;;;;13.25;6.65;;;;;;;;;;4991509;28;20034;-80
2022/04/26 05:13:02;;;;;;;12.82;6.63;;;;;;;;;;4993809;28;20023;-80
2022/04/26 05:15:28;;;;;;;13.77;6.63;;;;;;;;;;4993672;28;20106;-80
2022/04/26 05:17:55;;;;;;;13.65;6.95;;;;;;;;;;4993503;28;20021;-80
2022/04/26 05:20:21;;;;;;;10.77;6.35;;;;;;;;;;4993564;28;20417;-80
2022/04/26 05:25:35;;;;;;;9.15;6.57;;;;;;;;;;4976869;28;20057;-80
2022/04/26 05:28:01;;;;;;;12.82;6.45;;;;;;;;;;4998910;28;20034;-80
2022/04/26 05:30:28;;;;;;;9.82;5.75;;;;;;;;;;4993174;28;20034;-81
2022/04/26 05:32:54;;;;;;;11.02;6.40;;;;;;;;;;4992774;28;20053;-77
2022/04/26 05:35:22;;;;;;;15.90;6.35;;;;;;;;;;4993170;28;20022;-79
2022/04/26 05:37:48;;;;;;;10.27;6.28;;;;;;;;;;4993240;28;20414;-78
2022/04/26 05:40:14;;;;;;;9.23;6.13;;;;;;;;;;4990540;28;20050;-79
2022/04/26 05:42:40;;;;;;;12.80;5.88;;;;;;;;;;4988863;28;20498;-79
2022/04/26 05:45:07;;;;;;;11.10;6.40;;;;;;;;;;4990768;28;20030;-80
2022/04/26 05:47:33;;;;;;;10.38;6.25;;;;;;;;;;4991664;28;20425;-80
2022/04/26 05:49:59;;;;;;;11.02;6.30;;;;;;;;;;4991321;28;20034;-79
2022/04/26 05:52:26;;;;;;;11.48;6.68;;;;;;;;;;5019602;28;20026;-80
2022/04/26 05:54:52;;;;;;;12.15;6.88;;;;;;;;;;4992750;28;20026;-79
2022/04/26 05:57:18;;;;;;;10.68;5.97;;;;;;;;;;4996142;28;20010;-80
2022/04/26 05:59:44;;;;;;;11.38;6.40;;;;;;;;;;4995699;28;20098;-80
2022/04/26 06:02:11;;;;;;;12.88;7.03;;;;;;;;;;4995783;28;20265;-80
2022/04/26 06:04:38;;;;;;;14.15;9.25;;;;;;;;;;4994706;28;20034;-80
2022/04/26 06:07:05;;;;;;;14.50;7.47;;;;;;;;;;4993224;28;20030;-80
2022/04/26 06:09:31;;;;;;;13.77;6.50;;;;;;;;;;4995835;28;20221;-79
2022/04/26 06:11:57;;;;;;;11.63;6.70;;;;;;;;;;4994506;28;20029;-80
2022/04/26 06:14:24;;;;;;;16.20;6.82;;;;;;;;;;4995413;28;20026;-80
2022/04/26 06:16:50;;;;;;;15.43;6.30;;;;;;;;;;4995369;28;20036;-80
2022/04/26 06:19:16;;;;;;;14.02;6.40;;;;;;;;;;4995046;28;20032;-79
2022/04/26 06:21:42;;;;;;;11.38;6.38;;;;;;;;;;4996118;28;20030;-79
2022/04/26 06:24:08;;;;;;;13.05;7.18;;;;;;;;;;4996070;28;20034;-79
2022/04/26 06:26:34;;;;;;;12.00;6.45;;;;;;;;;;4995403;28;20130;-79
2022/04/26 06:29:00;;;;;;;13.30;6.55;;;;;;;;;;4995929;28;20109;-79
2022/04/26 06:31:26;;;;;;;13.52;6.53;;;;;;;;;;5018126;28;20411;-79
2022/04/26 06:33:52;;;;;;;10.15;5.65;;;;;;;;;;4995127;28;20497;-79
2022/04/26 06:36:18;;;;;;;11.18;6.20;;;;;;;;;;4995305;28;20094;-79
2022/04/26 06:38:44;;;;;;;9.98;5.68;;;;;;;;;;4995600;28;20110;-79
2022/04/26 06:41:10;;;;;;;9.02;5.03;;;;;;;;;;4993707;28;20506;-79
2022/04/26 06:43:36;;;;;;;9.50;5.38;;;;;;;;;;4995584;28;20105;-79
2022/04/26 06:46:03;;;;;;;11.80;5.68;;;;;;;;;;4995069;28;20109;-79
2022/04/26 06:48:30;;;;;;;9.95;5.40;;;;;;;;;;5018066;28;20073;-79
2022/04/26 06:50:56;;;;;;;13.20;5.68;;;;;;;;;;4995777;28;20373;-79
2022/04/26 06:53:22;;;;;;;9.35;4.82;;;;;;;;;;4994988;28;20026;-79
2022/04/26 06:55:48;;;;;;;9.65;5.68;;;;;;;;;;4995758;28;20029;-79
2022/04/26 06:58:14;;;;;;;8.15;5.00;;;;;;;;;;4995419;28;20030;-79
2022/04/26 07:00:40;;;;;;;8.75;5.18;;;;;;;;;;4995498;28;20029;-79
2022/04/26 07:03:06;;;;;;;12.43;5.30;;;;;;;;;;4994567;28;20134;-80
2022/04/26 07:05:32;;;;;;;11.38;5.32;;;;;;;;;;4995119;28;20033;-79
2022/04/26 07:07:58;;;;;;;13.95;5.10;;;;;;;;;;4995510;28;20375;-79
2022/04/26 07:10:28;;;;;;;9.02;4.95;;;;;;;;;;4994667;28;20037;-79
2022/04/26 07:12:54;;;;;;;9.95;5.75;;;;;;;;;;5018511;28;20513;-79
2022/04/26 07:15:20;;;;;;;8.73;5.22;;;;;;;;;;5014431;28;20022;-79
2022/04/26 07:17:46;;;;;;;13.32;5.00;;;;;;;;;;4993201;28;20062;-79
2022/04/26 07:20:13;;;;;;;13.85;5.05;;;;;;;;;;4991960;28;20026;-80
2022/04/26 07:22:39;;;;;;;11.85;4.60;;;;;;;;;;4994255;28;20128;-80
2022/04/26 07:25:06;;;;;;;11.98;4.55;;;;;;;;;;4994205;28;20030;-79
2022/04/26 07:27:32;;;;;;;8.77;4.68;;;;;;;;;;4985041;28;20084;-79
2022/04/26 07:29:58;;;;;;;10.88;4.60;;;;;;;;;;4995088;28;20023;-80
2022/04/26 07:34:20;;;;;;;12.00;5.43;;;;;;;;;;4994011;28;20106;-80
2022/04/26 07:35:10;;;;;;;10.60;5.32;;;;;;;;;;4994564;28;20482;-79
2022/04/26 07:37:37;;;;;;;19.48;5.72;;;;;;;;;;4994827;28;20030;-79
2022/04/26 07:40:03;;;;;;;13.73;5.35;;;;;;;;;;4994789;28;20014;-79
2022/04/26 07:42:30;;;;;;;11.45;5.95;;;;;;;;;;4992986;28;20046;-80
2022/04/26 07:44:56;;;;;;;14.10;6.43;;;;;;;;;;4994923;28;20021;-79
2022/04/26 07:47:24;;;;;;;11.20;6.43;;;;;;;;;;4993588;28;20122;-80
2022/04/26 07:49:52;;;;;;;10.10;5.93;;;;;;;;;;4994667;28;20385;-79
2022/04/26 07:52:19;;;;;;;14.02;6.53;;;;;;;;;;4994055;28;20021;-79
2022/04/26 07:54:46;;;;;;;14.93;5.78;;;;;;;;;;4994045;28;20018;-80
2022/04/26 07:57:12;;;;;;;12.57;6.30;;;;;;;;;;5017138;28;20057;-79
2022/04/26 07:59:39;;;;;;;9.15;4.78;;;;;;;;;;4994570;28;20019;-79
2022/04/26 08:02:08;;;;;;;10.25;4.70;;;;;;;;;;4994095;28;20022;-79
2022/04/26 08:04:34;;;;;;;7.60;4.72;;;;;;;;;;4992516;28;20026;-80
2022/04/26 08:07:00;;;;;;;8.05;4.13;;;;;;;;;;4994442;28;20019;-79
2022/04/26 08:09:26;;;;;;;13.52;4.15;;;;;;;;;;4993831;28;20048;-80
2022/04/26 08:11:53;;;;;;;15.00;4.82;;;;;;;;;;4994292;28;20486;-79
2022/04/26 08:14:20;;;;;;;12.10;4.78;;;;;;;;;;4993914;28;20053;-78
2022/04/26 08:16:46;;;;;;;10.32;4.97;;;;;;;;;;4993664;28;20018;-79
2022/04/26 08:19:12;;;;;;;11.02;4.50;;;;;;;;;;4993571;28;20025;-79
2022/04/26 08:21:39;;;;;;;13.63;4.53;;;;;;;;;;4993493;28;20018;-79
2022/04/26 08:29:34;;;;;;;8.90;3.90;;;;;;;;;;4993925;28;20065;-79
2022/04/26 08:32:00;;;;;;;9.02;5.05;;;;;;;;;;5017044;28;20406;-80
2022/04/26 08:34:27;;;;;;;6.95;3.65;;;;;;;;;;4993309;28;20482;-80
2022/04/26 08:36:53;;;;;;;10.77;4.30;;;;;;;;;;4993822;28;20100;-80
2022/04/26 08:39:21;;;;;;;6.55;4.60;;;;;;;;;;4993547;28;20100;-80
2022/04/26 08:41:47;;;;;;;7.97;3.78;;;;;;;;;;4993666;28;20018;-80
2022/04/26 08:44:13;;;;;;;16.73;4.65;;;;;;;;;;4993496;28;20049;-79
2022/04/26 08:52:09;;;;;;;13.40;4.68;;;;;;;;;;4989149;28;20030;-78
2022/04/26 08:54:35;;;;;;;12.73;4.47;;;;;;;;;;4990921;28;20030;-78
2022/04/26 08:57:02;;;;;;;12.43;3.90;;;;;;;;;;4990007;28;20015;-78
2022/04/26 08:59:28;;;;;;;9.75;3.60;;;;;;;;;;4990831;28;20113;-77
2022/04/26 09:02:13;;;;;;;7.63;4.05;;;;;;;;;;4990299;28;20486;-77
2022/04/26 09:04:39;;;;;;;11.80;4.25;;;;;;;;;;4989552;28;20053;-78
2022/04/26 09:07:05;;;;;;;5.93;3.55;;;;;;;;;;4991859;28;20450;-78
2022/04/26 09:09:31;;;;;;;7.47;3.38;;;;;;;;;;4991272;28;20034;-78
2022/04/26 09:12:00;;;;;;;10.38;2.95;;;;;;;;;;4990771;28;20030;-77
2022/04/26 09:14:36;;;;;;;8.00;3.30;;;;;;;;;;4991129;28;20425;-77
2022/04/26 09:17:05;;;;;;;5.80;2.75;;;;;;;;;;4992242;28;20018;-78
2022/04/26 09:19:43;;;;;;;13.15;4.05;;;;;;;;;;4992111;28;20023;-77
2022/04/26 09:22:15;;;;;;;5.88;2.70;;;;;;;;;;5023518;28;20469;-78
2022/04/26 09:25:14;;;;;;;7.20;2.83;;;;;;;;;;4991608;28;20516;-78
2022/04/26 09:27:42;;;;;;;7.75;3.13;;;;;;;;;;4950504;29;20042;-78
2022/04/26 09:30:11;;;;;;;11.75;3.45;;;;;;;;;;4952141;28;20039;-78
2022/04/26 09:32:44;;;;;;;7.50;3.28;;;;;;;;;;4951802;29;20031;-85
2022/04/26 09:35:23;;;;;;;5.30;3.00;;;;;;;;;;4951927;29;20034;-81
2022/04/26 09:37:49;;;;;;;4.50;2.47;;;;;;;;;;4951796;29;20035;-85
2022/04/26 09:40:15;;;;;;;7.32;2.72;;;;;;;;;;4952073;29;20027;-80
2022/04/26 09:42:41;;;;;;;7.32;2.92;;;;;;;;;;4950810;29;20031;-85
2022/04/26 09:45:08;;;;;;;5.70;2.60;;;;;;;;;;4952079;29;20038;-84
2022/04/26 09:47:38;;;;;;;6.97;3.08;;;;;;;;;;4951090;29;20060;-84
2022/04/26 09:50:06;;;;;;;8.73;3.25;;;;;;;;;;4951840;29;20043;-84
2022/04/26 09:52:32;;;;;;;6.63;2.55;;;;;;;;;;4935808;29;20612;-84
2022/04/26 09:55:00;;;;;;;6.40;2.50;;;;;;;;;;4935142;29;20553;-84
2022/04/26 09:57:29;;;;;;;4.85;2.30;;;;;;;;;;4951421;29;20035;-84
2022/04/26 09:59:55;;;;;;;9.98;2.53;;;;;;;;;;4951504;29;20031;-84
2022/04/26 10:02:22;;;;;;;8.38;2.50;;;;;;;;;;4941501;28;20030;-84
2022/04/26 10:04:49;;;;;;;6.53;2.92;;;;;;;;;;4992148;28;20026;-83
2022/04/26 10:07:19;;;;;;;7.28;2.95;;;;;;;;;;4991052;28;20014;-84
2022/04/26 10:09:46;;;;;;;5.28;2.50;;;;;;;;;;4982131;28;20022;-83
2022/04/26 10:12:12;;;;;;;9.70;2.25;;;;;;;;;;4992359;28;20092;-90
2022/04/26 10:14:39;;;;;;;6.32;2.55;;;;;;;;;;4992528;28;20080;-83
2022/04/26 10:17:07;;;;;;;6.80;2.13;;;;;;;;;;4991772;28;20022;-85
2022/04/26 10:19:40;;;;;;;4.45;2.25;;;;;;;;;;4991261;28;20026;-85
2022/04/26 10:22:08;;;;;;;6.03;2.42;;;;;;;;;;4991691;28;20828;-78
2022/04/26 10:24:34;;;;;;;5.13;2.10;;;;;;;;;;4993411;28;20064;-79
2022/04/26 10:27:20;;;;;;;5.30;2.33;;;;;;;;;;4992285;28;20563;-78
2022/04/26 10:29:46;;;;;;;6.75;2.33;;;;;;;;;;4991995;28;20042;-78
2022/04/26 10:32:28;;;;;;;4.30;2.10;;;;;;;;;;4991844;28;20030;-79
2022/04/26 10:34:54;;;;;;;4.38;2.10;;;;;;;;;;4992065;28;20100;-79
2022/04/26 10:37:20;;;;;;;4.28;2.17;;;;;;;;;;4991691;28;20054;-79
2022/04/26 10:39:51;;;;;;;7.32;2.13;;;;;;;;;;4991480;28;20101;-77
2022/04/26 10:42:19;;;;;;;5.90;2.17;;;;;;;;;;4995395;28;20528;-77
2022/04/26 10:44:46;;;;;;;6.68;2.05;;;;;;;;;;4995706;28;20030;-78
2022/04/26 10:47:14;;;;;;;5.90;2.33;;;;;;;;;;4994530;28;20054;-77
2022/04/26 10:49:40;;;;;;;4.53;1.85;;;;;;;;;;4996139;28;20030;-87
2022/04/26 10:52:13;;;;;;;5.43;2.08;;;;;;;;;;5026970;28;20034;-82
2022/04/26 10:54:45;;;;;;;3.55;2.00;;;;;;;;;;4995014;28;20085;-84
2022/04/26 10:57:22;;;;;;;6.22;2.05;;;;;;;;;;5011315;28;20033;-78
2022/04/26 10:59:49;;;;;;;3.65;1.85;;;;;;;;;;4994353;28;20531;-79
2022/04/26 11:02:18;;;;;;;4.70;1.95;;;;;;;;;;4995276;28;20022;-79
2022/04/26 11:04:44;;;;;;;3.30;1.80;;;;;;;;;;4995701;28;20030;-79
2022/04/26 11:07:15;;;;;;;5.38;1.95;;;;;;;;;;4994751;28;20030;-78
2022/04/26 11:09:49;;;;;;;6.05;1.90;;;;;;;;;;4995539;28;20105;-78
2022/04/26 11:12:18;;;;;;;3.33;1.50;;;;;;;;;;4994133;28;20367;-78
2022/04/26 11:14:44;;;;;;;3.85;1.67;;;;;;;;;;4995427;28;20038;-78
2022/04/26 11:17:10;;;;;;;4.65;1.83;;;;;;;;;;4993563;28;20050;-78
2022/04/26 11:19:37;;;;;;;4.10;1.75;;;;;;;;;;4995432;28;20050;-79
2022/04/26 11:22:13;;;;;;;4.43;1.80;;;;;;;;;;4995283;28;20060;-78
2022/04/26 11:30:10;;;;;;;3.22;1.48;;;;;;;;;;4994924;28;20037;-78
2022/04/26 11:32:45;;;;;;;3.20;1.65;;;;;;;;;;4994979;28;20035;-78
2022/04/26 11:35:14;;;;;;;3.78;1.60;;;;;;;;;;4994937;28;20077;-77
2022/04/26 11:37:44;;;;;;;3.15;1.63;;;;;;;;;;4995122;28;20490;-78
2022/04/26 11:40:11;;;;;;;3.65;1.52;;;;;;;;;;4994983;28;20023;-77
2022/04/26 11:42:37;;;;;;;3.13;1.75;;;;;;;;;;4994983;28;20026;-78
2022/04/26 11:45:03;;;;;;;6.30;1.63;;;;;;;;;;4994577;28;20096;-78
2022/04/26 11:47:39;;;;;;;4.07;1.52;;;;;;;;;;4993966;28;20086;-78
2022/04/26 11:50:14;;;;;;;6.75;1.83;;;;;;;;;;4995169;28;20493;-80
2022/04/26 11:52:41;;;;;;;8.27;1.70;;;;;;;;;;4992519;28;20105;-81
2022/04/26 11:55:07;;;;;;;4.50;1.80;;;;;;;;;;4994524;28;20030;-78
2022/04/26 11:57:33;;;;;;;4.13;1.60;;;;;;;;;;4994639;28;20026;-81
2022/04/26 12:00:00;;;;;;;7.53;1.88;;;;;;;;;;4994902;28;20022;-80
2022/04/26 12:02:29;;;;;;;5.78;1.75;;;;;;;;;;5021476;28;20105;-81
2022/04/26 12:04:56;;;;;;;4.13;1.40;;;;;;;;;;4993923;28;20034;-77
2022/04/26 12:07:22;;;;;;;4.35;1.42;;;;;;;;;;4993097;28;20493;-78
2022/04/26 12:09:48;;;;;;;5.35;1.67;;;;;;;;;;4993679;28;20019;-78
2022/04/26 12:12:15;;;;;;;3.58;1.42;;;;;;;;;;4993641;28;20096;-78
2022/04/26 12:14:41;;;;;;;7.38;1.98;;;;;;;;;;4993116;28;20513;-78
2022/04/26 12:17:18;;;;;;;4.55;1.40;;;;;;;;;;4994123;28;20056;-78
2022/04/26 12:19:50;;;;;;;4.68;1.23;;;;;;;;;;4990736;28;20015;-77
2022/04/26 12:22:19;;;;;;;2.78;1.40;;;;;;;;;;4992003;28;20042;-79
2022/04/26 12:24:52;;;;;;;3.05;1.58;;;;;;;;;;4986830;28;20049;-79
2022/04/26 12:27:22;;;;;;;4.07;1.67;;;;;;;;;;4998953;28;20409;-79
2022/04/26 12:29:51;;;;;;;3.58;1.45;;;;;;;;;;4979434;28;20018;-80
2022/04/26 12:32:18;;;;;;;3.05;1.40;;;;;;;;;;4993362;28;20019;-77
2022/04/26 12:34:50;;;;;;;3.15;1.52;;;;;;;;;;4993702;28;20370;-78
2022/04/26 12:37:25;;;;;;;9.45;1.70;;;;;;;;;;4993724;28;20026;-78
2022/04/26 12:39:53;;;;;;;8.18;1.75;;;;;;;;;;4978842;28;20015;-77
2022/04/26 12:42:25;;;;;;;3.08;1.50;;;;;;;;;;4994167;28;20018;-77
2022/04/26 12:44:56;;;;;;;3.45;1.48;;;;;;;;;;4993433;28;20031;-77
2022/04/26 12:52:54;;;;;;;2.40;1.42;;;;;;;;;;4994194;28;20104;-78
2022/04/26 12:55:25;;;;;;;4.03;1.40;;;;;;;;;;4992384;28;20038;-77
2022/04/26 12:57:52;;;;;;;7.93;1.33;;;;;;;;;;4978141;28;20030;-77
2022/04/26 13:00:19;;;;;;;5.38;2.65;;;;;;;;;;4992614;28;20030;-77
2022/04/26 13:02:48;;;;;;;3.10;1.58;;;;;;;;;;4993446;28;20037;-78
2022/04/26 13:05:15;;;;;;;5.00;1.52;;;;;;;;;;4992440;28;20022;-78
2022/04/26 13:07:41;;;;;;;3.53;1.23;;;;;;;;;;4993136;28;20022;-78
2022/04/26 13:10:08;;;;;;;3.83;1.55;;;;;;;;;;4993609;28;20030;-78
2022/04/26 13:12:34;;;;;;;4.32;1.60;;;;;;;;;;4993394;28;20025;-78
2022/04/26 13:15:00;;;;;;;4.75;1.48;;;;;;;;;;4993655;28;20102;-78
2022/04/26 13:17:30;;;;;;;3.47;1.55;;;;;;;;;;4993693;28;20022;-77
2022/04/26 13:19:56;;;;;;;3.42;1.70;;;;;;;;;;4988388;28;20022;-78
2022/04/26 13:22:22;;;;;;;3.78;1.48;;;;;;;;;;4993421;28;20073;-78
2022/04/26 13:24:50;;;;;;;3.58;1.30;;;;;;;;;;4992969;28;20037;-78
2022/04/26 13:27:16;;;;;;;4.38;1.70;;;;;;;;;;4993645;28;20030;-78
2022/04/26 13:29:42;;;;;;;4.88;1.67;;;;;;;;;;4992293;28;20032;-78
2022/04/26 13:32:09;;;;;;;1.92;1.08;;;;;;;;;;4993177;28;20022;-78
2022/04/26 13:34:35;;;;;;;2.45;1.10;;;;;;;;;;4991949;28;20038;-77
2022/04/26 13:37:01;;;;;;;4.65;1.30;;;;;;;;;;4990983;28;20106;-78
2022/04/26 13:39:27;;;;;;;3.92;1.50;;;;;;;;;;4986640;28;20030;-78
2022/04/26 13:41:53;;;;;;;6.00;1.58;;;;;;;;;;4991426;28;20014;-78
2022/04/26 13:44:20;;;;;;;4.78;1.33;;;;;;;;;;5021942;28;20018;-77
2022/04/26 13:46:49;;;;;;;3.35;1.40;;;;;;;;;;4991674;28;20518;-77
2022/04/26 13:49:15;;;;;;;2.55;1.33;;;;;;;;;;4992707;28;20030;-77
2022/04/26 13:51:41;;;;;;;4.07;1.10;;;;;;;;;;4992345;28;20035;-78
2022/04/26 13:54:08;;;;;;;3.35;1.25;;;;;;;;;;4992729;28;20052;-77
2022/04/26 13:56:34;;;;;;;4.13;1.30;;;;;;;;;;4992946;28;20022;-78
2022/04/26 13:59:00;;;;;;;5.45;1.33;;;;;;;;;;4992773;28;20536;-78
2022/04/26 14:01:26;;;;;;;3.92;1.42;;;;;;;;;;4992637;28;20035;-78
2022/04/26 14:03:52;;;;;;;2.85;1.20;;;;;;;;;;4992051;28;20030;-78
2022/04/26 14:06:21;;;;;;;2.20;1.10;;;;;;;;;;4992213;28;20042;-78
2022/04/26 14:08:49;;;;;;;3.95;1.40;;;;;;;;;;4992597;28;20022;-78
2022/04/26 14:11:16;;;;;;;5.65;1.50;;;;;;;;;;4992762;28;20390;-78
2022/04/26 14:21:55;;;;;;;3.45;1.20;;;;;;;;;;4996305;28;20084;-78
2022/04/26 14:24:22;;;;;;;2.92;1.05;;;;;;;;;;4996277;28;20375;-78
2022/04/26 14:26:49;;;;;;;6.95;1.40;;;;;;;;;;4996203;28;20045;-77
2022/04/26 14:29:15;;;;;;;2.20;1.10;;;;;;;;;;4996537;28;20462;-78
2022/04/26 14:31:41;;;;;;;4.13;1.20;;;;;;;;;;4996295;28;20053;-77
2022/04/26 14:34:07;;;;;;;2.70;1.20;;;;;;;;;;4996038;28;20014;-78
2022/04/26 14:36:33;;;;;;;7.00;1.05;;;;;;;;;;4996321;28;20026;-78
2022/04/26 14:38:59;;;;;;;4.78;1.20;;;;;;;;;;4996266;28;20101;-78
2022/04/26 14:41:26;;;;;;;6.05;1.20;;;;;;;;;;4995679;28;20060;-78
2022/04/26 14:43:53;;;;;;;6.18;1.20;;;;;;;;;;4995972;28;20022;-82
2022/04/26 14:46:19;;;;;;;3.30;1.27;;;;;;;;;;4995248;28;20126;-83
2022/04/26 14:48:45;;;;;;;3.63;1.20;;;;;;;;;;4995769;28;20030;-83
2022/04/26 14:51:11;;;;;;;4.13;1.13;;;;;;;;;;4995735;28;20037;-81
2022/04/26 14:53:38;;;;;;;4.20;1.10;;;;;;;;;;4996812;28;20069;-82
2022/04/26 14:56:05;;;;;;;9.68;1.45;;;;;;;;;;4995860;28;20109;-79
2022/04/26 14:58:31;;;;;;;1.42;0.93;;;;;;;;;;4995460;28;20049;-80
2022/04/26 15:00:58;;;;;;;5.40;1.23;;;;;;;;;;4995283;28;20023;-80
2022/04/26 15:03:24;;;;;;;5.45;1.40;;;;;;;;;;4995914;28;20030;-80
2022/04/26 15:05:50;;;;;;;1.95;0.95;;;;;;;;;;4995544;28;20118;-80
2022/04/26 15:11:00;;;;;;;3.78;1.20;;;;;;;;;;4995550;28;20374;-80
2022/04/26 15:18:55;;;;;;;2.85;1.10;;;;;;;;;;4995813;28;20034;-80
2022/04/26 15:21:23;;;;;;;4.75;1.00;;;;;;;;;;4995563;28;20449;-80
2022/04/26 15:23:50;;;;;;;2.28;1.35;;;;;;;;;;4995744;28;20366;-79
2022/04/26 15:26:16;;;;;;;4.88;0.85;;;;;;;;;;4994926;28;20027;-79
2022/04/26 15:28:42;;;;;;;2.30;1.10;;;;;;;;;;4998698;28;20101;-80
2022/04/26 15:31:10;;;;;;;2.75;0.93;;;;;;;;;;4994963;28;20485;-80
2022/04/26 15:33:38;;;;;;;4.90;1.77;;;;;;;;;;4994803;28;20044;-80
2022/04/26 15:36:04;;;;;;;1.83;1.00;;;;;;;;;;4995004;28;20026;-80
2022/04/26 15:38:30;;;;;;;2.92;0.90;;;;;;;;;;4995216;28;20426;-79
2022/04/26 15:41:01;;;;;;;3.00;0.95;;;;;;;;;;4994927;28;20061;-80
2022/04/26 15:43:30;;;;;;;5.75;1.70;;;;;;;;;;4994646;28;20050;-83
2022/04/26 15:45:56;;;;;;;3.45;1.10;;;;;;;;;;4993651;28;20018;-84
2022/04/26 15:48:25;;;;;;;4.13;1.15;;;;;;;;;;4994460;28;20065;-82
2022/04/26 15:50:52;;;;;;;2.22;0.93;;;;;;;;;;5025601;28;20061;-82
2022/04/26 15:53:18;;;;;;;1.52;1.00;;;;;;;;;;4994362;28;20038;-80
2022/04/26 15:55:44;;;;;;;3.90;1.10;;;;;;;;;;5013621;28;20022;-85
2022/04/26 15:58:10;;;;;;;4.03;1.27;;;;;;;;;;4994817;28;20038;-83
2022/04/26 16:00:37;;;;;;;3.28;1.05;;;;;;;;;;4993773;28;20018;-85
2022/04/26 16:03:03;;;;;;;2.47;1.00;;;;;;;;;;4993524;28;20065;-86
2022/04/26 16:05:29;;;;;;;6.22;1.25;;;;;;;;;;5021862;28;20037;-87
2022/04/26 16:07:55;;;;;;;3.17;1.08;;;;;;;;;;4994403;28;20030;-82
2022/04/26 16:21:22;;;;;;;2.55;1.02;;;;;;;;;;4993766;28;20464;-87
2022/04/26 16:23:49;;;;;;;2.25;1.08;;;;;;;;;;4992326;28;20085;-79
2022/04/26 16:26:19;;;;;;;3.88;1.10;;;;;;;;;;4994366;28;20059;-83
2022/04/26 16:28:46;;;;;;;3.38;0.90;;;;;;;;;;4978659;28;20046;-83
2022/04/26 16:31:13;;;;;;;3.20;1.10;;;;;;;;;;4998410;28;20038;-85
2022/04/26 16:33:39;;;;;;;3.80;1.00;;;;;;;;;;4999945;28;20452;-84
2022/04/26 16:36:07;;;;;;;4.97;1.20;;;;;;;;;;4994876;28;20482;-86
2022/04/26 16:38:36;;;;;;;2.65;1.00;;;;;;;;;;5015484;28;20023;-81
2022/04/26 16:41:04;;;;;;;1.55;0.77;;;;;;;;;;4994015;28;20105;-87
2022/04/26 16:43:30;;;;;;;2.83;1.20;;;;;;;;;;4992665;28;20161;-81
2022/04/26 16:45:56;;;;;;;4.05;1.05;;;;;;;;;;5021317;28;20439;-88
2022/04/26 16:48:23;;;;;;;2.90;1.10;;;;;;;;;;4993639;28;20105;-83
2022/04/26 16:50:49;;;;;;;3.67;1.15;;;;;;;;;;4991141;28;20022;-87
2022/04/26 16:53:16;;;;;;;2.15;1.17;;;;;;;;;;4993006;28;20544;-82
2022/04/26 16:55:42;;;;;;;2.90;1.08;;;;;;;;;;4992459;28;20097;-82
2022/04/26 16:58:08;;;;;;;1.98;1.00;;;;;;;;;;4993650;28;20089;-82
2022/04/26 17:00:34;;;;;;;5.72;1.13;;;;;;;;;;4993204;28;20022;-80
2022/04/26 17:03:00;;;;;;;1.30;0.90;;;;;;;;;;4993825;28;20077;-86
2022/04/26 17:05:27;;;;;;;2.55;1.08;;;;;;;;;;4992995;28;20034;-82
2022/04/26 17:07:57;;;;;;;3.92;1.05;;;;;;;;;;5017814;28;20030;-81
2022/04/26 17:10:24;;;;;;;2.55;1.27;;;;;;;;;;4993175;28;20022;-78
2022/04/26 17:12:52;;;;;;;3.25;1.02;;;;;;;;;;4993152;28;20113;-78
2022/04/26 17:15:21;;;;;;;4.13;0.90;;;;;;;;;;4993248;28;20023;-78
2022/04/26 17:17:47;;;;;;;2.70;1.10;;;;;;;;;;4992978;28;20105;-78
2022/04/26 17:20:14;;;;;;;3.30;1.08;;;;;;;;;;4992813;28;20022;-78
2022/04/26 17:22:40;;;;;;;3.42;1.02;;;;;;;;;;4993216;28;20026;-79
2022/04/26 17:25:16;;;;;;;2.38;0.98;;;;;;;;;;4992930;28;20102;-79
2022/04/26 17:27:42;;;;;;;6.68;1.33;;;;;;;;;;4992376;28;20036;-79
2022/04/26 17:30:09;;;;;;;5.07;2.00;;;;;;;;;;4992854;28;20033;-79
2022/04/26 17:32:35;;;;;;;4.57;1.15;;;;;;;;;;4993168;28;20415;-79
2022/04/26 17:35:01;;;;;;;3.63;1.00;;;;;;;;;;4993314;28;20018;-79
2022/04/26 17:37:27;;;;;;;2.72;0.98;;;;;;;;;;4992933;28;20026;-79
2022/04/26 17:39:53;;;;;;;2.50;1.10;;;;;;;;;;4993035;28;20025;-79
2022/04/26 17:42:24;;;;;;;2.78;0.93;;;;;;;;;;4992640;28;20029;-80
2022/04/26 17:44:50;;;;;;;3.70;1.10;;;;;;;;;;4991609;28;20070;-80
2022/04/26 17:47:16;;;;;;;6.68;1.20;;;;;;;;;;4992180;28;20061;-79
2022/04/26 17:49:42;;;;;;;4.88;1.17;;;;;;;;;;4992604;28;20033;-79
2022/04/26 17:52:08;;;;;;;4.78;1.67;;;;;;;;;;4991443;28;20122;-79
2022/04/26 17:57:19;;;;;;;6.63;1.83;;;;;;;;;;4992341;28;20489;-78
2022/04/26 17:59:46;;;;;;;3.30;1.45;;;;;;;;;;4992699;28;20048;-79
2022/04/26 18:02:12;;;;;;;8.10;2.83;;;;;;;;;;4992733;28;20022;-79
2022/04/26 18:04:40;;;;;;;7.00;3.05;;;;;;;;;;4993113;28;20061;-78
2022/04/26 18:07:06;;;;;;;7.40;3.40;;;;;;;;;;4992811;28;20037;-78
2022/04/26 18:09:36;;;;;;;10.27;3.40;;;;;;;;;;4992352;28;20041;-79
2022/04/26 18:12:03;;;;;;;8.35;3.13;;;;;;;;;;4992828;28;20113;-79
2022/04/26 18:14:29;;;;;;;7.55;3.35;;;;;;;;;;4992482;28;20018;-82
2022/04/26 18:16:55;;;;;;;7.10;3.40;;;;;;;;;;4993000;28;20056;-78
2022/04/26 18:19:21;;;;;;;8.38;3.08;;;;;;;;;;4992106;28;20059;-80
2022/04/26 18:21:47;;;;;;;6.68;2.88;;;;;;;;;;4992543;28;20018;-79
2022/04/26 18:24:14;;;;;;;10.00;2.67;;;;;;;;;;5018664;28;20109;-80
2022/04/26 18:26:42;;;;;;;6.50;2.13;;;;;;;;;;4992501;28;20065;-81
2022/04/26 18:29:09;;;;;;;5.40;2.40;;;;;;;;;;4990973;28;20034;-79
2022/04/26 18:31:37;;;;;;;6.95;2.30;;;;;;;;;;4992381;28;20026;-79
2022/04/26 18:34:03;;;;;;;6.80;2.35;;;;;;;;;;4992161;28;20019;-80
2022/04/26 18:36:32;;;;;;;4.38;2.05;;;;;;;;;;4990992;28;20026;-78
2022/04/26 18:38:58;;;;;;;7.90;2.13;;;;;;;;;;4991433;28;20014;-81
2022/04/26 18:41:26;;;;;;;5.35;1.90;;;;;;;;;;4992188;28;20027;-77
2022/04/26 18:43:52;;;;;;;6.72;2.00;;;;;;;;;;5008843;28;20034;-77
2022/04/26 18:46:21;;;;;;;5.25;1.45;;;;;;;;;;4991862;28;20050;-77
2022/04/26 18:48:49;;;;;;;3.00;1.48;;;;;;;;;;4992174;28;20037;-79
2022/04/26 18:51:15;;;;;;;5.22;1.60;;;;;;;;;;4992457;28;20598;-78
2022/04/26 18:53:41;;;;;;;4.07;1.48;;;;;;;;;;4991793;28;20030;-77
2022/04/26 18:56:08;;;;;;;4.93;1.75;;;;;;;;;;4992165;28;20108;-77
2022/04/26 18:58:34;;;;;;;12.05;1.80;;;;;;;;;;4991170;28;20027;-78
2022/04/26 19:01:01;;;;;;;4.32;1.85;;;;;;;;;;4991961;28;20026;-78
2022/04/26 19:03:28;;;;;;;3.08;1.88;;;;;;;;;;4994103;28;20026;-78
2022/04/26 19:05:54;;;;;;;5.78;1.95;;;;;;;;;;4994746;28;20026;-77
2022/04/26 19:08:21;;;;;;;5.82;1.60;;;;;;;;;;4994495;28;20450;-78
2022/04/26 19:13:35;;;;;;;3.70;1.30;;;;;;;;;;4995503;28;20061;-78